Pascagoula, MS

12:30 AM CST on February 14, 2016 (GMT -0600)
Sea Breeze | | Change Station
CLOSE
Current Station
Personal Weather Station
Location: Pascagoula, MS
Elevation: 12 ft
Nearby Weather Stations

Elev 12 ft 30.35 °N, 88.52 °W | Updated 32 seconds ago

Clear
Clear
43.9 °F
Feels Like 44 °F
N
0.0
Wind Variable Wind from North
Gusts 0.0 mph

Today
High -- | Low -- °F
--% Chance of Precip.
Yesterday
High -- | Low -- °F
Precip. -- in
Pressure 30.33 in
Visibility 10.0 miles
Clouds Clear
Windchill 44 °F
Dew Point 32 °F
Humidity 64%
Rainfall 0.00 in
Snow Depth Not available.
6:35 AM 5:41 PM
Waxing Crescent, 38% visible
METAR KPQL 140553Z AUTO 06003KT 10SM CLR 06/M04 A3033 RMK AO2 SLP271 T00561044 10106 20033 401670033 58014 TSNO
Pressure 30.33 in
Visibility 10.0 miles
Clouds Clear
Windchill 44 °F
Dew Point 32 °F
Humidity 64%
Rainfall 0.00 in
Snow Depth Not available.
6:35 AM 5:41 PM
Waxing Crescent, 38% visible
METAR KPQL 140553Z AUTO 06003KT 10SM CLR 06/M04 A3033 RMK AO2 SLP271 T00561044 10106 20033 401670033 58014 TSNO

10-Day Weather Forecast

Almanac

Astronomy

Feb. 14, 2016 Rise Set
Actual Time
Civil Twilight
Nautical Twilight
Astronomical Twilight
Moon
Length of Visible Light
Length of Day
Tomorrow will be .
, % of the Moon is Illuminated

Today's Extremes

State Highs State Lows

Community

WunderPhotos

Upload Photos

1,892,753 photos uploaded!

WunderBlog® & News

Nearby

Air Quality

  Air Quality AQ Index Pollutant
Not available.

Snow Depth

Station Depth Elevation

Earthquake Activity

City Distance Mag. Time & Date
Minimum magnitude displayed is 2.5.

Coastal Water Temperatures

Place Temperature

Stations

Nearby Weather Stations

Station Location Temp. Windchill Dew Point Humidity Wind Precip. Elev Updated Type
                   

Watches & Warnings

There are currently no watches in effect.